PST,Max TemperatureF,Mean TemperatureF,Min TemperatureF,Max Dew PointF,MeanDew PointF,Min DewpointF,Max Humidity, Mean Humidity, Min Humidity, Max Sea Level PressureIn, Mean Sea Level PressureIn, Min Sea Level PressureIn, Max VisibilityMiles, Mean VisibilityMiles, Min VisibilityMiles, Max Wind SpeedMPH, Mean Wind SpeedMPH, Max Gust SpeedMPH,PrecipitationIn, CloudCover, Events, WindDirDegrees
2012-12-1,64,60,56,58,56,52,94,87,78,30.04,29.97,29.86,10,6,1,21,10,28,0.57,8,Rain,163
2012-12-2,62,59,55,57,52,43,94,84,53,30.11,29.87,29.73,10,7,2,24,13,35,1.26,6,Rain,184
2012-12-3,60,50,40,50,43,37,100,89,67,30.22,30.16,30.10,10,4,0,7,0,9,0.00,1,Fog,285
2012-12-4,59,55,51,53,51,49,89,82,75,30.23,30.20,30.16,10,8,5,8,1,10,T,7,Rain,145
2012-12-5,58,56,54,55,53,51,100,91,86,30.20,30.15,30.12,10,6,1,14,6,18,0.39,8,Rain,65
2012-12-6,60,57,53,54,50,44,94,84,64,30.14,30.11,30.07,10,7,2,12,5,15,0.00,7,,323
2012-12-7,60,49,38,47,42,37,100,88,47,30.16,30.11,30.07,10,5,0,5,0,6,0.00,0,Fog,66
2012-12-8,57,50,42,45,43,39,100,88,59,30.14,30.09,30.04,10,3,0,8,2,10,0.00,4,Fog,329
2012-12-9,62,50,37,43,38,35,93,84,43,30.21,30.15,30.10,10,4,0,9,1,10,0.00,0,Fog,78
2012-12-10,62,50,38,47,41,36,100,88,54,30.27,30.19,30.12,10,3,0,7,0,15,0.00,0,Fog,133
2012-12-11,59,49,38,48,42,36,97,85,67,30.12,30.03,29.83,10,4,0,12,3,16,0.00,1,Fog,158
2012-12-12,57,52,47,47,41,36,93,76,49,29.90,29.85,29.81,10,9,2,14,5,18,0.04,4,Rain,185
2012-12-13,53,45,37,40,37,33,93,83,61,29.95,29.89,29.85,10,9,5,13,2,17,0.00,2,,317
2012-12-14,49,41,32,40,35,30,82,74,66,30.04,29.94,29.84,10,7,0,7,1,8,0.00,3,Fog,140
2012-12-15,46,39,31,43,35,30,96,89,82,30.12,30.07,30.04,10,3,0,6,1,9,0.15,6,Fog-Rain,167
2012-12-16,53,46,38,45,39,37,92,76,59,30.14,30.08,30.03,10,7,1,13,4,17,0.00,8,Rain,138
2012-12-17,60,55,50,52,47,40,93,80,67,30.06,30.01,29.96,10,5,1,16,9,24,0.28,6,Rain,160
2012-12-18,52,45,38,43,32,26,96,67,38,30.17,30.04,29.97,10,10,7,17,8,23,0.00,1,,320
2012-12-19,50,40,30,30,27,23,85,61,36,30.34,30.27,30.18,10,10,10,9,4,12,0.00,0,,124
2012-12-20,56,43,30,33,29,25,85,58,30,30.24,30.13,30.02,10,10,10,16,6,21,0.00,2,,146
2012-12-21,53,48,43,44,35,27,71,60,49,30.00,29.94,29.88,10,8,2,23,11,32,0.16,6,Rain,147
2012-12-22,55,51,47,46,44,41,86,75,63,30.10,29.96,29.84,10,8,2,23,12,33,0.71,6,Rain,168
2012-12-23,52,51,49,48,46,45,89,85,80,30.08,29.94,29.87,10,6,2,25,13,38,0.83,8,Rain,156
2012-12-24,51,44,37,46,41,36,93,87,80,30.23,30.14,30.00,10,5,0,13,4,16,0.00,3,Fog,334
2012-12-25,47,42,37,45,41,35,100,93,86,30.17,30.02,29.81,10,4,1,10,3,15,0.21,6,Rain,141
2012-12-26,53,48,43,45,40,36,96,80,64,30.10,30.00,29.84,10,6,1,13,5,17,T,2,,218
2012-12-27,51,44,36,41,38,33,100,86,71,30.18,30.13,30.10,10,4,0,10,1,13,0.00,2,Fog,321
2012-12-28,48,40,31,39,35,30,92,81,70,30.21,30.17,30.09,10,5,0,6,2,10,0.00,4,Fog,77
2012-12-29,53,47,40,39,37,34,92,77,61,30.09,30.06,30.03,10,8,1,14,5,17,T,4,,338
2012-12-30,54,43,32,39,32,28,96,71,46,30.17,30.08,30.05,10,5,0,20,3,24,T,1,Fog,334
2012-12-31,50,41,31,35,30,27,82,66,49,30.31,30.26,30.17,10,9,4,14,5,18,0.00,0,,335